Borrego (687) Station Data

Red Flag Warning: Yes
Fire Weather Zone: 262
SDGE Region: North East
Lat/Lon: 33.263/-116.348

Observations

Time Wind Speed/Gust Temp(F) RH Fuel Moist Fuel Temp(F) Dewpt(F) Tmax(F) Tmin(F) Accum Precip 10-min Precip SL Press(mb)
6/27 5:00pm 295 14 G 24 105° 6% - - 26° 109.6° 78.5° 0.0" 0.0" 1008.0
6/27 4:50pm 298 13 G 23 105° 6% - - 26° 109.6° 78.5° 0.0" 0.0" 1008.0
6/27 4:40pm 287 13 G 24 105° 6% - - 26° 109.6° 78.5° 0.0" 0.0" 1008.0
6/27 4:30pm 288 11 G 26 105° 6% - - 25° 109.6° 78.5° 0.0" 0.0" 1008.0
6/27 4:20pm 269 16 G 25 105° 6% - - 26° 109.6° 78.5° 0.0" 0.0" 1008.0
6/27 4:10pm 274 16 G 29 106° 6% - - 25° 109.6° 78.5° 0.0" 0.0" 1008.0
6/27 4:00pm 267 17 G 28 106° 6% - - 25° 109.6° 78.5° 0.0" 0.0" 1008.0
6/27 3:50pm 285 15 G 26 106° 6% - - 25° 109.6° 78.5° 0.0" 0.0" 1008.0
6/27 3:40pm 290 13 G 30 106° 6% - - 25° 109.6° 78.5° 0.0" 0.0" 1008.0
6/27 3:30pm 285 15 G 24 106° 6% - - 25° 109.6° 78.5° 0.0" 0.0" 1008.0
6/27 3:20pm 287 12 G 20 107° 6% - - 25° 109.6° 78.5° 0.0" 0.0" 1008.0
6/27 3:10pm 298 12 G 26 107° 6% - - 24° 109.6° 78.5° 0.0" 0.0" 1008.0
6/27 3:00pm 298 10 G 24 107° 6% - - 24° 109.6° 78.5° 0.0" 0.0" 1009.0
6/27 2:50pm 277 13 G 22 107° 5% - - 24° 109.6° 78.5° 0.0" 0.0" 1009.0
6/27 2:40pm 280 12 G 21 108° 5% - - 23° 109.6° 78.5° 0.0" 0.0" 1009.0
6/27 2:30pm 271 10 G 22 108° 5% - - 22° 109.6° 78.5° 0.0" 0.0" 1009.0
6/27 2:20pm 265 14 G 22 108° 5% - - 23° 109.6° 78.5° 0.0" 0.0" 1009.0
6/27 2:10pm 253 14 G 24 108° 5% - - 24° 109.6° 78.5° 0.0" 0.0" 1009.0
6/27 2:00pm 267 15 G 21 107° 5% - - 24° 109.6° 78.5° 0.0" 0.0" 1009.0
6/27 1:50pm 255 14 G 21 108° 5% - - 23° 109.6° 78.5° 0.0" 0.0" 1009.0
6/27 1:40pm 269 17 G 25 107° 5% - - 24° 109.6° 78.5° 0.0" 0.0" 1009.0
6/27 1:30pm 269 16 G 25 107° 6% - - 25° 109.6° 78.5° 0.0" 0.0" 1009.0
6/27 1:20pm 273 13 G 20 108° 5% - - 24° 109.6° 78.5° 0.0" 0.0" 1009.0
6/27 1:10pm 247 12 G 20 107° 5% - - 23° 109.6° 78.5° 0.0" 0.0" 1009.0
6/27 1:00pm 262 12 G 24 107° 5% - - 23° 109.6° 78.5° 0.0" 0.0" 1009.0
6/27 12:50pm 266 16 G 29 107° 5% - - 23° 109.6° 78.5° 0.0" 0.0" 1009.0
6/27 12:40pm 258 12 G 21 107° 5% - - 22° 109.6° 78.5° 0.0" 0.0" 1009.0
6/27 12:30pm 281 14 G 20 107° 5% - - 21° 109.6° 78.5° 0.0" 0.0" 1010.0
6/27 12:20pm 274 14 G 21 108° 5% - - 23° 109.6° 78.5° 0.0" 0.0" 1010.0
6/27 12:10pm 272 12 G 22 107° 5% - - 21° 107.8° 78.5° 0.0" 0.0" 1010.0
6/27 12:00pm 290 8 G 25 106° 5% - - 21° 107.5° 78.5° 0.0" 0.0" 1010.0
6/27 11:50am 293 12 G 24 106° 5% - - 22° 107.5° 78.5° 0.0" 0.0" 1010.0
6/27 11:40am 294 10 G 19 106° 5% - - 20° 107.5° 78.5° 0.0" 0.0" 1010.0
6/27 11:30am 312 7 G 19 106° 5% - - 21° 107.5° 78.5° 0.0" 0.0" 1010.0
6/27 11:20am 273 10 G 18 106° 5% - - 21° 106.6° 78.5° 0.0" 0.0" 1010.0
6/27 11:10am 287 11 G 23 106° 5% - - 19° 106.5° 78.5° 0.0" 0.0" 1010.0
6/27 11:00am 289 10 G 16 105° 5% - - 20° 106.2° 78.5° 0.0" 0.0" 1010.0
6/27 10:50am 294 9 G 21 105° 5% - - 20° 106.2° 78.5° 0.0" 0.0" 1010.0
6/27 10:40am 283 9 G 18 104° 5% - - 19° 105.1° 78.5° 0.0" 0.0" 1010.0
6/27 10:30am 301 10 G 20 104° 5% - - 19° 105.1° 78.5° 0.0" 0.0" 1010.0
6/27 10:20am 314 10 G 17 104° 5% - - 20° 105.1° 78.5° 0.0" 0.0" 1010.0
6/27 10:10am 311 8 G 17 104° 5% - - 20° 105.1° 78.5° 0.0" 0.0" 1010.0
6/27 10:00am 290 6 G 12 103° 5% - - 20° 104.7° 78.5° 0.0" 0.0" 1010.0
6/27 9:50am 281 7 G 12 103° 5% - - 20° 103.8° 78.5° 0.0" 0.0" 1010.0
6/27 9:40am 15 8 G 16 103° 5% - - 20° 103.8° 78.5° 0.0" 0.0" 1010.0
6/27 9:30am 356 7 G 13 102° 5% - - 20° 103.7° 78.5° 0.0" 0.0" 1010.0
6/27 9:20am 351 11 G 20 102° 6% - - 23° 102.5° 78.5° 0.0" 0.0" 1010.0
6/27 9:10am 347 11 G 20 101° 6% - - 23° 101.7° 78.5° 0.0" 0.0" 1010.0
6/27 9:00am 349 11 G 21 100° 7% - - 24° 100.3° 78.5° 0.0" 0.0" 1010.0
6/27 8:50am 356 13 G 21 99° 7% - - 24° 99.7° 78.5° 0.0" 0.0" 1010.0
6/27 8:40am 341 10 G 17 99° 7% - - 25° 99.4° 78.5° 0.0" 0.0" 1010.0
6/27 8:30am 326 7 G 14 97° 8% - - 26° 98.3° 78.5° 0.0" 0.0" 1010.0
6/27 8:20am 324 8 G 14 96° 8% - - 25° 96.5° 78.5° 0.0" 0.0" 1010.0
6/27 8:10am 326 6 G 11 95° 8% - - 24° 96° 78.5° 0.0" 0.0" 1010.0
6/27 8:00am 337 10 G 17 95° 8% - - 25° 96° 78.5° 0.0" 0.0" 1010.0
6/27 7:50am 325 8 G 15 93° 9% - - 26° 95.1° 78.5° 0.0" 0.0" 1010.0
6/27 7:40am 291 5 G 12 92° 9% - - 25° 94.1° 78.5° 0.0" 0.0" 1010.0
6/27 7:30am 309 7 G 12 91° 10% - - 26° 94.1° 78.5° 0.0" 0.0" 1010.0
6/27 7:20am 314 7 G 13 91° 9% - - 24° 94.1° 78.5° 0.0" 0.0" 1010.0
6/27 7:10am 296 6 G 11 89° 10% - - 25° 94.1° 78.5° 0.0" 0.0" 1010.0
6/27 7:00am 265 6 G 10 86° 11% - - 25° 94.1° 78.5° 0.0" 0.0" 1010.0
6/27 6:50am 267 4 G 8 82° 14% - - 28° 94.1° 78.5° 0.0" 0.0" 1010.0
6/27 6:40am 290 6 G 8 83° 13% - - 27° 94.1° 78.5° 0.0" 0.0" 1010.0
6/27 6:30am 291 6 G 10 84° 12% - - 25° 94.1° 78.5° 0.0" 0.0" 1010.0
6/27 6:20am 316 5 G 8 83° 12% - - 25° 94.1° 78.5° 0.0" 0.0" 1010.0
6/27 6:10am 325 4 G 6 81° 12% - - 24° 94.1° 78.5° 0.0" 0.0" 1010.0
6/27 6:00am 35 2 G 7 80° 13% - - 24° 94.1° 78.6° 0.0" 0.0" 1010.0
6/27 5:50am 305 3 G 12 81° 12% - - 24° 94.1° 78.6° 0.0" 0.0" 1010.0
6/27 5:40am 291 4 G 8 80° 13% - - 25° 94.1° 78.6° 0.0" 0.0" 1010.0
6/27 5:30am 213 5 G 9 81° 13% - - 25° 94.1° 79.2° 0.0" 0.0" 1010.0
6/27 5:20am 302 7 G 14 83° 12% - - 25° 94.1° 79.9° 0.0" 0.0" 1010.0
6/27 5:10am 330 4 G 8 86° 11% - - 25° 94.1° 81.7° 0.0" 0.0" 1010.0
6/27 5:00am 21 3 G 9 85° 11% - - 24° 94.1° 81.7° 0.0" 0.0" 1010.0
6/27 4:50am 349 4 G 12 84° 11% - - 24° 94.1° 81.7° 0.0" 0.0" 1010.0
6/27 4:40am 325 4 G 8 86° 10% - - 24° 94.1° 82.6° 0.0" 0.0" 1009.0
6/27 4:30am 17 5 G 7 89° 10% - - 24° 94.1° 87.3° 0.0" 0.0" 1009.0
6/27 4:20am 46 5 G 11 89° 10% - - 25° 94.1° 87.5° 0.0" 0.0" 1009.0
6/27 4:10am 48 2 G 6 89° 10% - - 25° 94.1° 87.5° 0.0" 0.0" 1009.0
6/27 4:00am 118 3 G 6 88° 10% - - 25° 94.1° 87.5° 0.0" 0.0" 1009.0
6/27 3:50am 218 4 G 10 89° 10% - - 25° 94.1° 87.7° 0.0" 0.0" 1009.0
6/27 3:40am 348 9 G 16 91° 9% - - 24° 94.1° 87.7° 0.0" 0.0" 1009.0
6/27 3:30am 3 12 G 20 91° 9% - - 24° 94.1° 87.7° 0.0" 0.0" 1009.0
6/27 3:20am 2 12 G 19 91° 9% - - 24° 94.1° 87.7° 0.0" 0.0" 1009.0
6/27 3:10am 12 14 G 21 91° 9% - - 25° 94.1° 87.7° 0.0" 0.0" 1009.0
6/27 3:00am 7 11 G 21 90° 10% - - 25° 94.1° 87.7° 0.0" 0.0" 1009.0
6/27 2:50am 7 10 G 17 90° 10% - - 25° 94.1° 87.7° 0.0" 0.0" 1009.0
6/27 2:40am 12 9 G 15 91° 9% - - 24° 94.1° 87.7° 0.0" 0.0" 1009.0
6/27 2:30am 353 7 G 17 89° 9% - - 24° 93.9° 87.7° 0.0" 0.0" 1010.0
6/27 2:20am 3 9 G 15 90° 9% - - 25° 92.1° 87.9° 0.0" 0.0" 1010.0
6/27 2:10am 12 10 G 17 90° 9% - - 24° 92.1° 87.9° 0.0" 0.0" 1010.0
6/27 2:00am 10 10 G 15 91° 9% - - 24° 92.1° 87.9° 0.0" 0.0" 1010.0
6/27 1:50am 10 11 G 16 91° 9% - - 25° 92.1° 87.9° 0.0" 0.0" 1010.0
6/27 1:40am 5 10 G 15 91° 9% - - 24° 92.1° 87.9° 0.0" 0.0" 1010.0
6/27 1:30am 3 10 G 15 91° 9% - - 24° 92.1° 87.9° 0.0" 0.0" 1010.0
6/27 1:20am 339 5 G 12 90° 9% - - 25° 92.1° 87.9° 0.0" 0.0" 1010.0
6/27 1:10am 13 9 G 17 91° 8% - - 23° 92.1° 87.9° 0.0" 0.0" 1010.0
6/27 1:00am 25 7 G 11 91° 9% - - 23° 91.9° 87.9° 0.0" 0.0" 1010.0
6/27 12:50am 12 6 G 9 91° 9% - - 24° 91.9° 87.9° 0.0" 0.0" 1010.0
6/27 12:40am 31 6 G 11 91° 9% - - 25° 91.7° 87.9° 0.0" 0.0" 1010.0
6/27 12:30am 108 4 G 8 90° 9% - - 24° 91.7° 87.9° 0.0" 0.0" 1011.0
6/27 12:20am 118 5 G 12 90° 9% - - 24° 91.7° 87.9° 0.0" 0.0" 1011.0
6/27 12:10am 52 4 G 9 90° 10% - - 25° 91.7° 87.9° 0.0" 0.0" 1011.0
6/27 12:00am 272 3 G 11 89° 10% - - 25° 113.4° 82.5° 0.0" 0.0" 1011.0
6/26 11:50pm 353 4 G 8 91° 9% - - 26° 113.4° 82.5° 0.0" 0.0" 1011.0
6/26 11:40pm 312 3 G 8 91° 10% - - 27° 113.4° 82.5° 0.0" 0.0" 1011.0
6/26 11:30pm 50 4 G 10 93° 9% - - 26° 113.4° 82.5° 0.0" 0.0" 1011.0
6/26 11:20pm 34 5 G 10 93° 9% - - 27° 113.4° 82.5° 0.0" 0.0" 1011.0
6/26 11:10pm 112 3 G 7 92° 10% - - 26° 113.4° 82.5° 0.0" 0.0" 1011.0
6/26 11:00pm 26 4 G 7 92° 10% - - 27° 113.4° 82.5° 0.0" 0.0" 1011.0
6/26 10:50pm 80 4 G 6 93° 9% - - 27° 113.4° 82.5° 0.0" 0.0" 1011.0
6/26 10:40pm 181 2 G 5 93° 9% - - 27° 113.4° 82.5° 0.0" 0.0" 1011.0
6/26 10:30pm 98 2 G 4 92° 10% - - 27° 113.4° 82.5° 0.0" 0.0" 1011.0
6/26 10:20pm 17 6 G 9 95° 9% - - 27° 113.4° 82.5° 0.0" 0.0" 1011.0
6/26 10:10pm 24 4 G 9 95° 9% - - 27° 113.4° 82.5° 0.0" 0.0" 1011.0
6/26 10:00pm 50 3 G 6 95° 9% - - 26° 113.4° 82.5° 0.0" 0.0" 1011.0
6/26 9:50pm 54 3 G 7 96° 8% - - 25° 113.4° 82.5° 0.0" 0.0" 1011.0
6/26 9:40pm 95 5 G 9 97° 8% - - 26° 113.4° 82.5° 0.0" 0.0" 1011.0
6/26 9:30pm 144 3 G 5 96° 8% - - 27° 113.4° 82.5° 0.0" 0.0" 1011.0
6/26 9:20pm 75 2 G 3 99° 8% - - 26° 113.4° 82.5° 0.0" 0.0" 1011.0
6/26 9:10pm 292 2 G 5 100° 8% - - 27° 113.4° 82.5° 0.0" 0.0" 1011.0
6/26 9:00pm 327 3 G 6 99° 8% - - 27° 113.4° 82.5° 0.0" 0.0" 1010.0
6/26 8:50pm 270 6 G 11 99° 8% - - 26° 113.4° 82.5° 0.0" 0.0" 1011.0
6/26 8:40pm 244 8 G 13 100° 7% - - 27° 113.4° 82.5° 0.0" 0.0" 1010.0
6/26 8:30pm 257 8 G 16 101° 7% - - 27° 113.4° 82.5° 0.0" 0.0" 1011.0
6/26 8:20pm 241 7 G 13 101° 7% - - 27° 113.4° 82.5° 0.0" 0.0" 1011.0
6/26 8:10pm 253 7 G 20 100° 7% - - 26° 113.4° 82.5° 0.0" 0.0" 1011.0
6/26 8:00pm 222 7 G 11 101° 7% - - 26° 113.4° 82.5° 0.0" 0.0" 1011.0
6/26 7:50pm 245 4 G 8 102° 7% - - 28° 113.4° 82.5° 0.0" 0.0" 1011.0
6/26 7:40pm 281 10 G 20 102° 7% - - 28° 113.4° 82.5° 0.0" 0.0" 1011.0
6/26 7:30pm 241 9 G 15 102° 7% - - 27° 113.4° 82.5° 0.0" 0.0" 1011.0
6/26 7:20pm 246 12 G 19 103° 7% - - 27° 113.4° 82.5° 0.0" 0.0" 1011.0
6/26 7:10pm 248 11 G 21 104° 7% - - 27° 113.4° 82.5° 0.0" 0.0" 1011.0
6/26 7:00pm 254 14 G 20 104° 7% - - 28° 113.4° 82.5° 0.0" 0.0" 1010.0
6/26 6:50pm 260 12 G 19 105° 7% - - 28° 113.4° 82.5° 0.0" 0.0" 1010.0
6/26 6:40pm 269 13 G 24 105° 7% - - 27° 113.4° 82.5° 0.0" 0.0" 1010.0
6/26 6:30pm 253 12 G 29 106° 6% - - 27° 113.4° 82.5° 0.0" 0.0" 1010.0
6/26 6:20pm 265 14 G 23 106° 6% - - 27° 113.4° 82.5° 0.0" 0.0" 1010.0
6/26 6:10pm 262 16 G 27 107° 6% - - 26° 113.4° 82.5° 0.0" 0.0" 1010.0
6/26 6:00pm 268 13 G 21 107° 6% - - 28° 113.4° 82.5° 0.0" 0.0" 1010.0
6/26 5:50pm 267 16 G 24 107° 6% - - 28° 113.4° 82.5° 0.0" 0.0" 1010.0
6/26 5:40pm 258 15 G 24 108° 6% - - 28° 113.4° 82.5° 0.0" 0.0" 1010.0
6/26 5:30pm 265 15 G 24 109° 6% - - 29° 113.4° 82.5° 0.0" 0.0" 1010.0
6/26 5:20pm 263 15 G 24 108° 7% - - 30° 113.4° 82.5° 0.0" 0.0" 1010.0
6/26 5:10pm 250 17 G 26 109° 7% - - 31° 113.4° 82.5° 0.0" 0.0" 1010.0
6/26 5:00pm 254 17 G 25 109° 7% - - 31° 113.4° 82.5° 0.0" 0.0" 1010.0
6/26 4:50pm 252 17 G 30 109° 7% - - 31° 113.4° 82.5° 0.0" 0.0" 1010.0
6/26 4:40pm 250 18 G 30 109° 7% - - 31° 113.4° 82.5° 0.0" 0.0" 1010.0
6/26 4:30pm 258 16 G 25 110° 7% - - 31° 113.4° 82.5° 0.0" 0.0" 1010.0
6/26 4:20pm 267 18 G 28 110° 7% - - 31° 113.4° 82.5° 0.0" 0.0" 1011.0
6/26 4:10pm 256 17 G 27 110° 7% - - 32° 113.4° 82.5° 0.0" 0.0" 1011.0
6/26 4:00pm 268 14 G 24 111° 7% - - 32° 113.4° 82.5° 0.0" 0.0" 1011.0
6/26 3:50pm 263 14 G 23 111° 7% - - 32° 113.4° 82.5° 0.0" 0.0" 1011.0
6/26 3:40pm 268 13 G 20 112° 7% - - 33° 113.4° 82.5° 0.0" 0.0" 1011.0
6/26 3:30pm 259 15 G 22 111° 7% - - 33° 113.4° 82.5° 0.0" 0.0" 1011.0
6/26 3:20pm 284 12 G 21 112° 7% - - 32° 113.4° 82.5° 0.0" 0.0" 1011.0
6/26 3:10pm 284 12 G 20 112° 7% - - 32° 113.4° 82.5° 0.0" 0.0" 1011.0
6/26 3:00pm 265 15 G 24 111° 7% - - 32° 113.4° 82.5° 0.0" 0.0" 1011.0
6/26 2:50pm 245 18 G 26 112° 7% - - 32° 113.4° 82.5° 0.0" 0.0" 1011.0
6/26 2:40pm 257 16 G 24 112° 6% - - 32° 113.4° 82.5° 0.0" 0.0" 1011.0
6/26 2:30pm 259 13 G 24 112° 7% - - 32° 113.4° 82.5° 0.0" 0.0" 1011.0
6/26 2:20pm 107 3 G 8 111° 8% - - 38° 112.5° 82.5° 0.0" 0.0" 1011.0
6/26 2:10pm 99 6 G 12 110° 8% - - 37° 111.7° 82.5° 0.0" 0.0" 1011.0
6/26 2:00pm 111 6 G 14 110° 9% - - 39° 111.7° 82.5° 0.0" 0.0" 1011.0
6/26 1:50pm 12 4 G 7 110° 10% - - 41° 111.7° 82.5° 0.0" 0.0" 1011.0
6/26 1:40pm 107 6 G 13 110° 11% - - 43° 110.7° 82.5° 0.0" 0.0" 1012.0
6/26 1:30pm 151 5 G 13 109° 11% - - 43° 110° 82.5° 0.0" 0.0" 1012.0
6/26 1:20pm 130 5 G 11 109° 12% - - 44° 109.8° 82.5° 0.0" 0.0" 1012.0
6/26 1:10pm 154 4 G 10 108° 12% - - 45° 108.8° 82.5° 0.0" 0.0" 1012.0
6/26 1:00pm 126 7 G 14 107° 14% - - 47° 108.2° 82.5° 0.0" 0.0" 1012.0
6/26 12:50pm 121 7 G 11 106° 14% - - 48° 107.2° 82.5° 0.0" 0.0" 1012.0
6/26 12:40pm 124 7 G 13 105° 17% - - 51° 106.5° 82.5° 0.0" 0.0" 1012.0
6/26 12:30pm 123 6 G 11 105° 17% - - 51° 105.6° 82.5° 0.0" 0.0" 1013.0
6/26 12:20pm 137 5 G 11 105° 18% - - 52° 105.5° 82.5° 0.0" 0.0" 1013.0
6/26 12:10pm 123 6 G 10 103° 18% - - 52° 105° 82.5° 0.0" 0.0" 1013.0
6/26 12:00pm 108 5 G 11 103° 19% - - 52° 103.6° 82.5° 0.0" 0.0" 1013.0
6/26 11:50am 96 5 G 10 102° 20% - - 53° 102.6° 82.5° 0.0" 0.0" 1013.0
6/26 11:40am 133 6 G 10 101° 22% - - 55° 101.8° 82.5° 0.0" 0.0" 1013.0
6/26 11:30am 103 6 G 13 100° 23% - - 55° 100.8° 82.5° 0.0" 0.0" 1013.0
6/26 11:20am 124 6 G 12 100° 24% - - 56° 100.3° 82.5° 0.0" 0.0" 1013.0
6/26 11:10am 129 8 G 13 99° 24% - - 56° 99.8° 82.5° 0.0" 0.0" 1013.0
6/26 11:00am 135 8 G 13 99° 26% - - 58° 99.8° 82.5° 0.0" 0.0" 1013.0
6/26 10:50am 117 7 G 11 98° 27% - - 58° 99.6° 82.5° 0.0" 0.0" 1013.0
6/26 10:40am 135 7 G 11 98° 27% - - 58° 99.6° 82.5° 0.0" 0.0" 1013.0
6/26 10:30am 144 6 G 11 97° 28% - - 58° 99.6° 82.5° 0.0" 0.0" 1014.0
6/26 10:20am 136 6 G 11 97° 27% - - 57° 99.6° 82.5° 0.0" 0.0" 1014.0
6/26 10:10am 123 7 G 11 96° 28% - - 58° 99.6° 82.5° 0.0" 0.0" 1014.0
6/26 10:00am 136 9 G 14 95° 32% - - 60° 99.6° 82.5° 0.0" 0.0" 1014.0
6/26 9:50am 131 10 G 14 94° 34% - - 61° 99.6° 82.5° 0.0" 0.0" 1014.0
6/26 9:40am 133 10 G 15 94° 36% - - 63° 99.6° 82.5° 0.0" 0.0" 1014.0
6/26 9:30am 128 11 G 15 94° 35% - - 62° 99.6° 82.5° 0.0" 0.0" 1014.0
6/26 9:20am 129 11 G 14 93° 38% - - 64° 99.6° 82.5° 0.0" 0.0" 1013.0
6/26 9:10am 131 10 G 13 93° 38% - - 64° 99.6° 82.5° 0.0" 0.0" 1013.0
6/26 9:00am 144 7 G 11 94° 34% - - 61° 99.6° 82.5° 0.0" 0.0" 1013.0
6/26 8:50am 141 6 G 9 93° 34% - - 61° 99.6° 82.5° 0.0" 0.0" 1013.0
6/26 8:40am 146 5 G 9 92° 39% - - 63° 99.6° 82.5° 0.0" 0.0" 1013.0
6/26 8:30am 143 4 G 8 91° 41% - - 64° 99.6° 82.5° 0.0" 0.0" 1013.0
6/26 8:20am 189 4 G 7 91° 29% - - 54° 99.6° 82.5° 0.0" 0.0" 1013.0
6/26 8:10am 217 4 G 6 90° 22% - - 47° 99.6° 82.5° 0.0" 0.0" 1013.0
6/26 8:00am 199 4 G 7 90° 21% - - 45° 99.6° 82.5° 0.0" 0.0" 1013.0
6/26 7:50am 201 4 G 6 90° 18% - - 41° 99.6° 82.5° 0.0" 0.0" 1013.0
6/26 7:40am 192 3 G 6 90° 16% - - 37° 99.6° 82.5° 0.0" 0.0" 1013.0
6/26 7:30am 147 4 G 9 90° 15% - - 36° 99.6° 82.5° 0.0" 0.0" 1013.0
6/26 7:20am 191 1 G 4 89° 17% - - 38° 99.6° 82.5° 0.0" 0.0" 1013.0
6/26 7:10am 207 2 G 3 88° 18% - - 39° 99.6° 82.5° 0.0" 0.0" 1012.0
6/26 7:00am 222 1 G 3 87° 18% - - 38° 99.6° 82.5° 0.0" 0.0" 1012.0
6/26 6:50am 330 1 G 5 87° 17% - - 37° 99.6° 82.5° 0.0" 0.0" 1012.0
6/26 6:40am 317 2 G 5 89° 15% - - 36° 99.6° 82.5° 0.0" 0.0" 1012.0
6/26 6:30am 309 4 G 8 85° 17% - - 36° 99.6° 82.5° 0.0" 0.0" 1012.0
6/26 6:20am 282 3 G 5 85° 18% - - 36° 99.6° 82.5° 0.0" 0.0" 1012.0
6/26 6:10am 310 5 G 7 85° 18% - - 37° 99.6° 82.5° 0.0" 0.0" 1012.0
6/26 6:00am 304 3 G 5 86° 17% - - 36° 99.6° 82.7° 0.0" 0.0" 1012.0